Time;durP1;ratioP1;P1;durP2;ratioP2;P2;SDS_P1;SDS_P2;PMS_P1;PMS_P2;Temp;Humidity;BMP_temperature;BMP_pressure;BME280_temperature;BME280_humidity;BME280_pressure;Samples;Min_cycle;Max_cycle;Signal;HPM_P1;HPM_P2
2022/12/08 00:01:11;;;;;;;6.43;3.35;;;1.20;99.90;;;;;;4826572;29;20050;-78
2022/12/08 00:03:39;;;;;;;6.28;3.78;;;1.20;99.90;;;;;;4829183;29;20058;-79
2022/12/08 00:11:41;;;;;;;6.38;3.50;;;1.20;99.90;;;;;;4830919;29;20054;-79
2022/12/08 00:14:07;;;;;;;7.15;3.90;;;1.20;99.90;;;;;;4833776;29;20058;-79
2022/12/08 00:16:34;;;;;;;5.22;3.08;;;1.10;99.90;;;;;;4830417;29;20058;-80
2022/12/08 00:19:01;;;;;;;3.78;2.55;;;1.10;99.90;;;;;;4813119;29;20504;-79
2022/12/08 00:21:28;;;;;;;3.00;2.20;;;1.10;99.90;;;;;;4826965;29;20077;-79
2022/12/08 00:23:55;;;;;;;3.45;2.25;;;1.00;99.90;;;;;;4824943;29;20070;-79
2022/12/08 00:26:22;;;;;;;3.17;1.90;;;1.00;99.90;;;;;;4837904;29;20050;-79
2022/12/08 00:28:48;;;;;;;2.92;1.67;;;1.00;99.90;;;;;;4839291;29;20062;-78
2022/12/08 00:31:15;;;;;;;2.72;2.17;;;1.00;99.90;;;;;;4829376;29;20370;-79
2022/12/08 00:33:42;;;;;;;4.00;2.40;;;0.90;99.90;;;;;;4830308;29;20455;-79
2022/12/08 00:36:11;;;;;;;2.45;1.70;;;0.90;99.90;;;;;;4833917;29;20054;-79
2022/12/08 00:38:39;;;;;;;1.92;1.55;;;0.90;99.90;;;;;;4838302;29;20046;-79
2022/12/08 00:41:11;;;;;;;2.75;2.05;;;0.90;99.90;;;;;;4843454;29;20046;-79
2022/12/08 00:43:38;;;;;;;2.10;1.60;;;0.90;99.90;;;;;;4842533;29;20073;-79
2022/12/08 00:46:05;;;;;;;3.65;1.77;;;0.80;99.90;;;;;;4834923;29;20054;-78
2022/12/08 00:48:31;;;;;;;3.08;1.85;;;0.90;99.90;;;;;;4844705;29;20531;-79
2022/12/08 00:50:58;;;;;;;2.70;1.95;;;0.80;99.90;;;;;;4835907;29;20124;-78
2022/12/08 00:53:25;;;;;;;2.50;1.90;;;0.70;99.90;;;;;;4840877;29;20058;-80
2022/12/08 00:55:51;;;;;;;1.98;1.65;;;0.60;99.90;;;;;;4835741;29;20058;-79
2022/12/08 00:58:18;;;;;;;3.50;1.73;;;0.60;99.90;;;;;;4837279;29;20497;-79
2022/12/08 01:00:45;;;;;;;2.15;1.67;;;0.50;99.90;;;;;;4839687;29;20505;-79
2022/12/08 01:03:12;;;;;;;3.30;1.80;;;0.50;99.90;;;;;;4841869;29;20166;-79
2022/12/08 01:05:39;;;;;;;2.90;1.60;;;0.50;99.90;;;;;;4844088;29;20062;-79
2022/12/08 01:08:06;;;;;;;1.77;1.30;;;0.60;99.90;;;;;;4844910;29;20061;-79
2022/12/08 01:10:35;;;;;;;6.25;2.50;;;0.60;99.90;;;;;;4843540;29;20065;-79
2022/12/08 01:13:02;;;;;;;2.92;1.92;;;0.60;99.90;;;;;;4841029;29;20062;-79
2022/12/08 01:15:29;;;;;;;3.95;2.17;;;0.60;99.90;;;;;;4838961;29;20057;-79
2022/12/08 01:17:56;;;;;;;3.22;1.85;;;0.60;99.90;;;;;;4837359;29;20515;-79
2022/12/08 01:20:23;;;;;;;4.25;2.50;;;0.60;99.90;;;;;;4833556;29;20050;-79
2022/12/08 01:22:49;;;;;;;5.82;2.90;;;0.50;99.90;;;;;;4832486;29;20070;-79
2022/12/08 01:25:16;;;;;;;6.40;2.65;;;0.60;99.90;;;;;;4830532;29;20524;-79
2022/12/08 01:27:43;;;;;;;6.13;2.97;;;0.60;99.90;;;;;;4831576;29;20050;-79
2022/12/08 01:30:10;;;;;;;6.20;2.80;;;0.50;99.90;;;;;;4838327;29;20058;-78
2022/12/08 01:32:37;;;;;;;2.70;1.90;;;0.50;99.90;;;;;;4842363;29;20515;-78
2022/12/08 01:35:03;;;;;;;4.18;2.00;;;0.50;99.90;;;;;;4840125;29;20080;-78
2022/12/08 01:37:30;;;;;;;6.13;2.80;;;0.50;99.90;;;;;;4837973;29;20054;-78
2022/12/08 01:39:57;;;;;;;17.70;6.13;;;0.50;99.90;;;;;;4835772;29;20145;-78
2022/12/08 01:42:24;;;;;;;2.50;1.73;;;0.50;99.90;;;;;;4840817;29;20055;-78
2022/12/08 01:44:58;;;;;;;2.80;1.58;;;0.50;99.90;;;;;;4831149;29;20061;-78
2022/12/08 01:47:30;;;;;;;1.77;1.50;;;0.50;99.90;;;;;;4829421;29;20046;-79
2022/12/08 01:49:59;;;;;;;2.63;1.65;;;0.50;99.90;;;;;;4827681;29;20053;-78
2022/12/08 01:52:32;;;;;;;1.55;1.42;;;0.50;99.90;;;;;;4842887;29;20056;-78
2022/12/08 01:55:09;;;;;;;2.45;1.70;;;0.50;99.90;;;;;;4843093;29;20058;-78
2022/12/08 01:57:45;;;;;;;4.25;2.72;;;0.50;99.90;;;;;;4839154;29;20050;-79
2022/12/08 02:00:14;;;;;;;3.00;2.10;;;0.50;99.90;;;;;;4834569;29;20054;-79
2022/12/08 02:02:52;;;;;;;2.40;1.83;;;0.50;99.90;;;;;;4835671;29;20058;-79
2022/12/08 02:05:23;;;;;;;2.40;1.70;;;0.50;99.90;;;;;;4832503;29;20469;-78
2022/12/08 02:07:52;;;;;;;2.63;2.00;;;0.40;99.90;;;;;;4828932;29;20069;-79
2022/12/08 02:10:21;;;;;;;1.77;1.30;;;0.40;99.90;;;;;;4827739;29;20753;-78
2022/12/08 02:12:51;;;;;;;2.30;1.55;;;0.40;99.90;;;;;;4838501;29;20477;-78
2022/12/08 02:15:21;;;;;;;3.22;1.80;;;0.40;99.90;;;;;;4842195;29;20439;-79
2022/12/08 02:18:06;;;;;;;2.25;1.88;;;0.40;99.90;;;;;;4838312;29;20156;-79
2022/12/08 02:21:12;;;;;;;2.78;1.95;;;0.40;99.90;;;;;;4836061;29;20501;-79
2022/12/08 02:23:57;;;;;;;3.80;1.65;;;0.30;99.90;;;;;;4834505;29;20054;-79
2022/12/08 02:26:30;;;;;;;6.07;2.38;;;0.30;99.90;;;;;;4838369;29;20066;-79
2022/12/08 02:29:28;;;;;;;2.83;2.10;;;0.40;99.90;;;;;;4829477;29;20055;-79
2022/12/08 02:31:55;;;;;;;3.17;1.95;;;0.30;99.90;;;;;;4840740;29;20520;-79
2022/12/08 02:34:33;;;;;;;1.95;1.50;;;0.30;99.90;;;;;;4842414;29;20054;-78
2022/12/08 02:37:21;;;;;;;2.53;1.80;;;0.30;99.90;;;;;;4842035;29;20386;-79
2022/12/08 02:39:56;;;;;;;4.10;1.90;;;0.20;99.90;;;;;;4836422;29;20053;-79
2022/12/08 02:42:36;;;;;;;3.40;2.10;;;0.20;99.90;;;;;;4842298;29;20046;-79
2022/12/08 02:45:07;;;;;;;2.95;2.15;;;0.20;99.90;;;;;;4836372;29;20121;-79
2022/12/08 02:47:35;;;;;;;6.07;2.25;;;0.20;99.90;;;;;;4838986;29;20070;-78
2022/12/08 02:50:02;;;;;;;2.35;1.65;;;0.10;99.90;;;;;;4839041;29;20050;-79
2022/12/08 02:52:29;;;;;;;3.40;2.00;;;0.10;99.90;;;;;;4825521;29;20054;-79
2022/12/08 02:55:03;;;;;;;2.78;2.10;;;0.10;99.90;;;;;;4826121;29;20050;-79
2022/12/08 02:58:08;;;;;;;3.53;1.88;;;0.10;99.90;;;;;;4841365;29;20046;-79
2022/12/08 03:00:50;;;;;;;5.03;1.73;;;0.20;99.90;;;;;;4823762;29;20508;-79
2022/12/08 03:03:34;;;;;;;3.35;1.83;;;0.20;99.90;;;;;;4837071;29;20464;-79
2022/12/08 03:06:27;;;;;;;3.13;1.98;;;0.10;99.90;;;;;;4838508;29;20057;-79
2022/12/08 03:09:01;;;;;;;3.08;2.05;;;0.10;99.90;;;;;;4837628;29;20061;-79
2022/12/08 03:11:35;;;;;;;2.80;1.77;;;0.20;99.90;;;;;;4829630;29;20065;-80
2022/12/08 03:14:05;;;;;;;3.00;1.98;;;0.20;99.90;;;;;;4826589;29;20479;-79
2022/12/08 03:16:37;;;;;;;4.45;1.80;;;0.30;99.90;;;;;;4832515;29;20937;-79
2022/12/08 03:19:18;;;;;;;3.42;1.90;;;0.30;99.90;;;;;;4827850;29;20054;-78
2022/12/08 03:22:01;;;;;;;2.38;1.80;;;0.30;99.90;;;;;;4829933;29;20134;-79
2022/12/08 03:24:42;;;;;;;1.90;1.65;;;0.40;99.90;;;;;;4836905;29;20084;-79
2022/12/08 03:27:19;;;;;;;4.60;2.35;;;0.40;99.90;;;;;;4837413;29;20054;-79
2022/12/08 03:29:48;;;;;;;2.33;1.70;;;0.40;99.90;;;;;;4836378;29;20057;-78
2022/12/08 03:32:46;;;;;;;2.72;1.50;;;0.50;99.90;;;;;;4844061;29;20424;-79
2022/12/08 03:35:18;;;;;;;5.65;1.70;;;0.50;99.90;;;;;;4829770;29;20085;-78
2022/12/08 03:37:45;;;;;;;3.30;1.85;;;0.50;99.90;;;;;;4834071;29;20066;-78
2022/12/08 03:40:16;;;;;;;3.20;1.58;;;0.60;99.90;;;;;;4840251;29;20057;-78
2022/12/08 03:42:43;;;;;;;2.00;1.60;;;0.60;99.90;;;;;;4840258;29;20061;-78
2022/12/08 03:45:10;;;;;;;1.98;1.65;;;0.70;99.90;;;;;;4836519;29;20050;-79
2022/12/08 03:47:36;;;;;;;2.85;1.92;;;0.70;99.90;;;;;;4824982;29;20054;-79
2022/12/08 03:50:04;;;;;;;1.85;1.65;;;0.70;99.90;;;;;;4830230;29;20054;-79
2022/12/08 03:52:31;;;;;;;2.22;1.85;;;0.80;99.90;;;;;;4831848;29;20059;-79
2022/12/08 03:54:57;;;;;;;3.45;2.28;;;0.80;99.90;;;;;;4825917;29;20058;-79
2022/12/08 03:57:24;;;;;;;2.30;1.60;;;0.90;99.90;;;;;;4825805;29;20061;-79
2022/12/08 03:59:51;;;;;;;2.40;1.60;;;0.90;99.90;;;;;;4835413;29;20045;-79
2022/12/08 04:02:17;;;;;;;2.88;1.83;;;0.90;99.90;;;;;;4840292;29;20046;-78
2022/12/08 04:04:44;;;;;;;2.40;1.80;;;1.00;99.90;;;;;;4839835;29;20053;-79
2022/12/08 04:07:11;;;;;;;1.70;1.45;;;1.00;99.90;;;;;;4835135;29;20046;-79
2022/12/08 04:09:37;;;;;;;1.98;1.50;;;1.00;99.90;;;;;;4833143;29;20060;-78
2022/12/08 04:12:04;;;;;;;3.55;2.13;;;1.10;99.90;;;;;;4837685;29;20054;-79
2022/12/08 04:14:31;;;;;;;1.65;1.50;;;1.10;99.90;;;;;;4836851;29;20061;-79
2022/12/08 04:16:58;;;;;;;2.95;1.90;;;1.10;99.90;;;;;;4823460;29;20141;-78
2022/12/08 04:19:24;;;;;;;2.00;1.30;;;1.10;99.90;;;;;;4823771;29;20050;-79
2022/12/08 04:21:51;;;;;;;2.33;1.90;;;1.20;99.90;;;;;;4823058;29;20559;-79
2022/12/08 04:24:18;;;;;;;2.22;1.65;;;1.20;99.90;;;;;;4826412;29;20061;-79
2022/12/08 04:26:44;;;;;;;1.55;1.40;;;1.30;99.90;;;;;;4833827;29;20054;-79
2022/12/08 04:29:11;;;;;;;1.98;1.60;;;1.30;99.90;;;;;;4833764;29;20061;-79
2022/12/08 04:31:38;;;;;;;2.50;1.70;;;1.30;99.90;;;;;;4832474;29;20058;-79
2022/12/08 04:34:05;;;;;;;4.22;1.80;;;1.30;99.90;;;;;;4829034;29;20058;-79
2022/12/08 04:36:31;;;;;;;1.98;1.42;;;1.40;99.90;;;;;;4828591;29;20066;-79
2022/12/08 04:38:58;;;;;;;2.33;1.40;;;1.40;99.90;;;;;;4826928;29;20046;-79
2022/12/08 04:41:25;;;;;;;2.28;1.50;;;1.40;99.90;;;;;;4825970;29;20051;-79
2022/12/08 04:43:52;;;;;;;2.78;1.77;;;1.50;99.90;;;;;;4838439;29;20054;-79
2022/12/08 04:46:18;;;;;;;3.50;2.10;;;1.50;99.90;;;;;;4840420;29;20053;-79
2022/12/08 04:48:45;;;;;;;2.17;1.60;;;1.50;99.90;;;;;;4836524;29;20065;-79
2022/12/08 04:51:18;;;;;;;3.35;1.83;;;1.50;99.90;;;;;;4839678;29;20054;-79
2022/12/08 04:53:46;;;;;;;3.25;2.08;;;1.50;99.90;;;;;;4838849;29;20577;-78
2022/12/08 04:56:14;;;;;;;5.20;2.20;;;1.50;99.90;;;;;;4831835;29;20066;-79
2022/12/08 04:58:41;;;;;;;4.72;2.63;;;1.60;99.90;;;;;;4826552;29;20050;-79
2022/12/08 05:01:08;;;;;;;3.40;2.13;;;1.60;99.90;;;;;;4837466;29;20054;-79
2022/12/08 05:03:34;;;;;;;4.75;2.55;;;1.60;99.90;;;;;;4834491;29;20061;-79
2022/12/08 05:06:02;;;;;;;4.13;2.38;;;1.60;99.90;;;;;;4839395;29;20061;-79
2022/12/08 05:08:29;;;;;;;4.68;2.53;;;1.60;99.90;;;;;;4837926;29;20054;-79
2022/12/08 05:11:07;;;;;;;5.90;2.97;;;1.60;99.90;;;;;;4839409;29;20504;-79
2022/12/08 05:13:34;;;;;;;4.57;2.80;;;1.50;99.90;;;;;;4833712;29;20054;-78
2022/12/08 05:16:10;;;;;;;3.80;2.33;;;1.50;99.90;;;;;;4830909;29;20101;-79
2022/12/08 05:18:38;;;;;;;4.70;2.65;;;1.50;99.90;;;;;;4828856;29;20065;-79
2022/12/08 05:21:06;;;;;;;3.38;2.50;;;1.50;99.90;;;;;;4827363;29;20065;-79
2022/12/08 05:23:33;;;;;;;3.75;2.38;;;1.40;99.90;;;;;;4828372;29;20050;-78
2022/12/08 05:26:00;;;;;;;2.55;2.20;;;1.40;99.90;;;;;;4844633;29;20482;-79
2022/12/08 05:28:27;;;;;;;3.60;2.53;;;1.40;99.90;;;;;;4841693;29;20054;-78
2022/12/08 05:31:14;;;;;;;3.25;2.60;;;1.30;99.90;;;;;;4838677;29;20050;-79
2022/12/08 05:33:42;;;;;;;5.05;3.10;;;1.30;99.90;;;;;;4834849;29;20077;-79
2022/12/08 05:36:11;;;;;;;6.35;3.55;;;1.20;99.90;;;;;;4834672;29;20050;-78
2022/12/08 05:38:38;;;;;;;3.10;2.50;;;1.20;99.90;;;;;;4841319;29;20058;-78
2022/12/08 05:41:07;;;;;;;3.20;2.50;;;1.20;99.90;;;;;;4830433;29;20052;-79
2022/12/08 05:43:33;;;;;;;4.53;2.80;;;1.20;99.90;;;;;;4832052;29;20054;-79
2022/12/08 05:46:01;;;;;;;7.35;3.15;;;1.10;99.90;;;;;;4833690;29;20432;-79
2022/12/08 05:48:27;;;;;;;5.22;3.10;;;1.10;99.90;;;;;;4842281;29;20054;-80
2022/12/08 05:50:54;;;;;;;9.02;4.07;;;1.10;99.90;;;;;;4839633;29;20056;-80
2022/12/08 05:53:21;;;;;;;8.88;4.75;;;1.10;99.90;;;;;;4831568;29;20409;-80
2022/12/08 05:55:48;;;;;;;8.73;5.10;;;1.10;99.90;;;;;;4826051;29;20047;-80
2022/12/08 05:58:17;;;;;;;7.95;4.85;;;1.10;99.90;;;;;;4826417;29;20130;-80
2022/12/08 06:00:45;;;;;;;7.82;4.68;;;1.10;99.90;;;;;;4838827;29;20064;-80
2022/12/08 06:03:14;;;;;;;5.85;4.28;;;1.10;99.90;;;;;;4829798;29;20518;-79
2022/12/08 06:05:42;;;;;;;6.88;4.90;;;1.10;99.90;;;;;;4842282;29;20152;-79
2022/12/08 06:08:10;;;;;;;8.65;5.38;;;1.10;99.90;;;;;;4848138;29;20049;-80
2022/12/08 06:10:38;;;;;;;10.35;6.32;;;1.10;99.90;;;;;;4849117;29;20054;-80
2022/12/08 06:13:05;;;;;;;11.98;6.20;;;1.10;99.90;;;;;;4840982;29;20583;-80
2022/12/08 06:15:36;;;;;;;13.02;7.03;;;1.10;99.90;;;;;;4836123;29;20050;-80
2022/12/08 06:18:04;;;;;;;11.98;6.28;;;1.10;99.90;;;;;;4825742;29;20058;-79
2022/12/08 06:20:31;;;;;;;11.50;6.40;;;1.20;99.90;;;;;;4836784;29;20057;-80
2022/12/08 06:22:58;;;;;;;9.43;6.68;;;1.20;99.90;;;;;;4839223;29;20054;-80
2022/12/08 06:25:24;;;;;;;8.70;5.50;;;1.20;99.90;;;;;;4839452;29;20061;-79
2022/12/08 06:27:51;;;;;;;9.38;5.22;;;1.20;99.90;;;;;;4842843;29;20057;-79
2022/12/08 06:30:18;;;;;;;11.88;5.68;;;1.20;99.90;;;;;;4842155;29;20049;-80
2022/12/08 06:32:44;;;;;;;7.47;4.63;;;1.20;99.90;;;;;;4840472;29;20058;-78
2022/12/08 06:35:11;;;;;;;10.98;4.90;;;1.20;99.90;;;;;;4837484;29;20050;-78
2022/12/08 06:37:38;;;;;;;6.50;4.32;;;1.10;99.90;;;;;;4825128;29;20057;-79
2022/12/08 06:40:05;;;;;;;13.40;6.78;;;1.10;99.90;;;;;;4832376;29;20046;-78
2022/12/08 06:42:45;;;;;;;15.10;6.72;;;1.10;99.90;;;;;;4831806;29;20078;-78
2022/12/08 06:45:14;;;;;;;23.23;10.55;;;1.00;99.90;;;;;;4826871;29;20055;-77
2022/12/08 06:47:41;;;;;;;49.53;20.38;;;1.00;99.90;;;;;;4839144;29;20054;-78
2022/12/08 06:50:09;;;;;;;15.18;7.95;;;1.00;99.90;;;;;;4842110;29;20060;-79
2022/12/08 06:52:36;;;;;;;12.27;7.03;;;1.00;99.90;;;;;;4825842;29;20058;-78
2022/12/08 06:55:15;;;;;;;12.68;6.75;;;0.90;99.90;;;;;;4834752;29;20110;-78
2022/12/08 06:58:01;;;;;;;9.32;5.85;;;0.90;99.90;;;;;;4841326;29;20054;-78
2022/12/08 07:00:28;;;;;;;7.55;4.63;;;0.90;99.90;;;;;;4838944;29;20053;-78
2022/12/08 07:02:55;;;;;;;8.80;4.00;;;0.90;99.90;;;;;;4833244;29;20053;-78
2022/12/08 07:05:22;;;;;;;7.38;4.55;;;0.80;99.90;;;;;;4836377;29;20081;-78
2022/12/08 07:07:48;;;;;;;8.43;4.80;;;0.80;99.90;;;;;;4831708;29;20103;-78
2022/12/08 07:10:15;;;;;;;6.30;3.70;;;0.80;99.90;;;;;;4831165;29;20136;-78
2022/12/08 07:12:42;;;;;;;8.02;4.65;;;0.80;99.90;;;;;;4839034;29;20061;-79
2022/12/08 07:15:09;;;;;;;9.35;3.92;;;0.80;99.90;;;;;;4833607;29;20070;-80
2022/12/08 07:17:36;;;;;;;5.50;3.95;;;0.90;99.90;;;;;;4832047;29;20049;-77
2022/12/08 07:20:02;;;;;;;5.65;3.78;;;0.90;99.90;;;;;;4836692;29;20054;-78
2022/12/08 07:22:30;;;;;;;6.70;4.10;;;0.90;99.90;;;;;;4835218;29;20050;-78
2022/12/08 07:24:56;;;;;;;7.53;4.05;;;0.90;99.90;;;;;;4833632;29;20054;-78
2022/12/08 07:27:23;;;;;;;6.80;3.75;;;0.90;99.90;;;;;;4829739;29;20046;-79
2022/12/08 07:29:49;;;;;;;6.20;3.53;;;1.00;99.90;;;;;;4828312;29;20055;-78
2022/12/08 07:32:16;;;;;;;6.30;4.07;;;1.00;99.90;;;;;;4831093;29;20058;-78
2022/12/08 07:34:43;;;;;;;7.22;3.90;;;1.00;99.90;;;;;;4834612;29;20057;-79
2022/12/08 07:37:12;;;;;;;13.18;6.38;;;1.00;99.90;;;;;;4835722;29;20084;-79
2022/12/08 07:39:39;;;;;;;13.48;6.43;;;1.00;99.90;;;;;;4834956;29;20062;-80
2022/12/08 07:42:06;;;;;;;11.40;5.47;;;1.00;99.90;;;;;;4837707;29;20081;-79
2022/12/08 07:44:32;;;;;;;8.90;4.18;;;1.00;99.90;;;;;;4835530;29;20050;-78
2022/12/08 07:46:59;;;;;;;5.90;3.63;;;1.00;99.90;;;;;;4836899;29;20449;-79
2022/12/08 07:49:26;;;;;;;7.68;3.88;;;1.00;99.90;;;;;;4833818;29;20638;-79
2022/12/08 07:51:53;;;;;;;7.70;4.53;;;1.00;99.90;;;;;;4832477;29;20058;-79
2022/12/08 07:54:19;;;;;;;10.18;5.50;;;1.00;99.90;;;;;;4831183;29;20058;-79
2022/12/08 07:56:46;;;;;;;9.43;6.30;;;1.10;99.90;;;;;;4828328;29;20054;-79
2022/12/08 07:59:13;;;;;;;11.02;5.72;;;1.00;99.90;;;;;;4830188;29;20050;-79
2022/12/08 08:01:40;;;;;;;13.07;7.30;;;1.10;99.90;;;;;;4830643;29;20053;-79
2022/12/08 08:04:11;;;;;;;9.73;6.15;;;1.10;99.90;;;;;;4836022;29;20050;-79
2022/12/08 08:06:38;;;;;;;7.28;4.70;;;1.10;99.90;;;;;;4833640;29;20057;-79
2022/12/08 08:09:04;;;;;;;8.32;4.65;;;1.20;99.90;;;;;;4835782;29;20065;-79
2022/12/08 08:11:31;;;;;;;10.68;5.28;;;1.20;99.90;;;;;;4827104;29;20146;-79
2022/12/08 08:13:58;;;;;;;8.63;5.40;;;1.20;99.90;;;;;;4827725;29;20050;-79
2022/12/08 08:16:24;;;;;;;12.40;6.10;;;1.20;99.90;;;;;;4830698;29;20050;-79
2022/12/08 08:18:51;;;;;;;19.63;9.82;;;1.30;99.90;;;;;;4838114;29;20053;-79
2022/12/08 08:21:19;;;;;;;25.60;13.85;;;1.20;99.90;;;;;;4840237;29;20493;-79
2022/12/08 08:24:06;;;;;;;37.40;18.85;;;1.30;99.90;;;;;;4836177;29;20049;-79
2022/12/08 08:26:33;;;;;;;33.30;17.42;;;1.30;99.90;;;;;;4836914;29;20057;-79
2022/12/08 08:28:59;;;;;;;31.80;17.05;;;1.30;99.90;;;;;;4835254;29;20054;-79
2022/12/08 08:31:26;;;;;;;30.42;14.80;;;1.30;99.90;;;;;;4836465;29;20050;-79
2022/12/08 08:33:55;;;;;;;37.97;17.15;;;1.30;99.90;;;;;;4839174;29;20062;-79
2022/12/08 08:36:22;;;;;;;42.92;21.13;;;1.30;99.90;;;;;;4839334;29;20429;-79
2022/12/08 08:38:49;;;;;;;59.10;22.80;;;1.30;99.90;;;;;;4830949;29;20066;-80
2022/12/08 08:41:16;;;;;;;59.20;22.58;;;1.20;99.90;;;;;;4829250;29;20051;-79
2022/12/08 08:43:42;;;;;;;63.95;21.92;;;1.30;99.90;;;;;;4833255;29;20058;-79
2022/12/08 08:46:09;;;;;;;63.58;22.42;;;1.20;99.90;;;;;;4832293;29;20500;-81
2022/12/08 08:48:36;;;;;;;44.55;20.05;;;1.20;99.90;;;;;;4835665;29;20059;-81
2022/12/08 08:51:11;;;;;;;47.55;20.63;;;1.30;99.90;;;;;;4831163;29;20416;-81
2022/12/08 08:53:38;;;;;;;116.00;19.42;;;1.30;99.90;;;;;;4841374;29;20046;-80
2022/12/08 08:56:13;;;;;;;68.30;18.42;;;1.20;99.90;;;;;;4833682;29;20064;-80
2022/12/08 08:58:40;;;;;;;51.47;17.23;;;1.10;99.90;;;;;;4841165;29;20069;-79
2022/12/08 09:01:07;;;;;;;120.57;16.63;;;1.10;99.90;;;;;;4838318;29;20080;-78
2022/12/08 09:03:34;;;;;;;89.22;17.17;;;1.20;99.90;;;;;;4832146;29;20050;-78
2022/12/08 09:06:00;;;;;;;59.10;17.02;;;1.20;99.90;;;;;;4834042;29;20073;-78
2022/12/08 09:08:27;;;;;;;65.18;18.10;;;1.20;99.90;;;;;;4835415;29;20058;-78
2022/12/08 09:10:54;;;;;;;90.10;18.45;;;1.30;99.90;;;;;;4836408;29;20060;-80
2022/12/08 09:13:21;;;;;;;108.57;18.52;;;1.30;99.90;;;;;;4840173;29;20563;-80
2022/12/08 09:15:48;;;;;;;81.45;19.48;;;1.40;99.90;;;;;;4841927;29;20050;-78
2022/12/08 09:18:15;;;;;;;95.88;20.45;;;1.40;99.90;;;;;;4843996;29;20080;-78
2022/12/08 09:20:41;;;;;;;108.07;20.77;;;1.50;99.90;;;;;;4844341;29;20053;-78
2022/12/08 09:23:08;;;;;;;65.03;20.00;;;1.60;99.90;;;;;;4842684;29;20424;-78
2022/12/08 09:25:35;;;;;;;64.32;21.35;;;1.60;99.90;;;;;;4844041;29;20054;-81
2022/12/08 09:28:01;;;;;;;57.78;21.50;;;1.60;99.90;;;;;;4838362;29;20051;-78
2022/12/08 09:30:28;;;;;;;65.50;23.25;;;1.70;99.90;;;;;;4841945;29;20472;-81
2022/12/08 09:32:55;;;;;;;66.53;21.30;;;1.80;99.90;;;;;;4833900;29;20161;-78
2022/12/08 09:35:21;;;;;;;47.20;20.08;;;1.80;99.90;;;;;;4826944;29;20077;-79
2022/12/08 09:37:48;;;;;;;57.17;20.98;;;1.90;99.90;;;;;;4835945;29;20065;-78
2022/12/08 09:40:19;;;;;;;79.47;20.23;;;1.90;99.90;;;;;;4826625;29;20054;-78
2022/12/08 09:43:03;;;;;;;71.55;21.05;;;1.90;99.90;;;;;;4828687;29;20059;-79
2022/12/08 09:45:34;;;;;;;48.13;21.55;;;2.00;99.90;;;;;;4840288;29;20058;-78
2022/12/08 09:48:17;;;;;;;41.92;20.80;;;2.00;99.90;;;;;;4839581;29;20065;-78
2022/12/08 09:50:53;;;;;;;40.80;20.08;;;2.10;99.90;;;;;;4841557;29;20055;-81
2022/12/08 09:53:21;;;;;;;44.25;19.70;;;2.10;99.90;;;;;;4834673;29;20058;-78
2022/12/08 09:56:05;;;;;;;41.20;19.70;;;2.20;99.90;;;;;;4833302;29;20060;-79
2022/12/08 09:58:56;;;;;;;43.05;21.05;;;2.30;99.90;;;;;;4841701;29;20146;-81
2022/12/08 10:01:28;;;;;;;46.80;22.20;;;2.30;99.90;;;;;;4825378;29;20051;-79
2022/12/08 10:03:56;;;;;;;53.88;24.08;;;2.30;99.90;;;;;;4826525;29;20456;-80
2022/12/08 10:06:46;;;;;;;57.33;29.25;;;2.20;99.90;;;;;;4841189;29;20060;-80
2022/12/08 10:09:37;;;;;;;49.20;20.65;;;2.20;99.90;;;;;;4838910;29;20481;-80
2022/12/08 10:12:23;;;;;;;50.08;22.33;;;2.30;99.90;;;;;;4826328;29;20054;-80
2022/12/08 10:15:18;;;;;;;37.17;19.70;;;2.30;99.90;;;;;;4831128;29;20046;-79
2022/12/08 10:17:47;;;;;;;39.40;20.85;;;2.40;99.90;;;;;;4829936;29;20062;-80
2022/12/08 10:20:24;;;;;;;40.22;21.13;;;2.40;99.90;;;;;;4841404;29;20050;-79
2022/12/08 10:23:04;;;;;;;41.63;19.83;;;2.40;99.90;;;;;;4826265;29;20054;-80
2022/12/08 10:25:40;;;;;;;46.72;22.38;;;2.40;99.90;;;;;;4827941;29;20055;-80
2022/12/08 10:28:08;;;;;;;54.65;18.92;;;2.20;99.90;;;;;;4840165;29;20045;-81
2022/12/08 10:30:35;;;;;;;68.65;19.98;;;2.10;99.90;;;;;;4834650;29;20073;-80
2022/12/08 10:33:01;;;;;;;58.58;21.45;;;1.80;99.90;;;;;;4826853;29;20401;-80
2022/12/08 10:35:47;;;;;;;65.65;22.45;;;1.70;99.90;;;;;;4826221;29;20054;-80
2022/12/08 10:38:19;;;;;;;70.53;21.73;;;1.70;99.90;;;;;;4830187;29;20061;-80
2022/12/08 10:40:47;;;;;;;67.10;22.02;;;1.80;99.90;;;;;;4828697;29;20062;-80
2022/12/08 10:43:23;;;;;;;65.78;20.98;;;1.90;99.90;;;;;;4826700;29;20548;-81
2022/12/08 10:45:51;;;;;;;44.92;20.33;;;1.90;99.90;;;;;;4840669;29;20050;-80
2022/12/08 10:48:19;;;;;;;51.35;21.75;;;2.00;99.90;;;;;;4826028;29;20050;-80
2022/12/08 10:50:56;;;;;;;46.30;20.73;;;2.10;99.90;;;;;;4825526;29;20065;-80
2022/12/08 10:53:29;;;;;;;114.70;21.00;;;2.10;99.90;;;;;;4831118;29;20058;-80
2022/12/08 10:56:01;;;;;;;50.60;20.15;;;2.20;99.90;;;;;;4834797;29;20061;-80
2022/12/08 10:58:35;;;;;;;78.45;20.98;;;2.30;99.90;;;;;;4832844;29;20062;-80
2022/12/08 11:01:08;;;;;;;127.28;21.55;;;2.30;99.90;;;;;;4830527;29;20420;-80
2022/12/08 11:03:48;;;;;;;53.25;22.48;;;2.20;99.90;;;;;;4828300;29;20050;-79
2022/12/08 11:06:29;;;;;;;52.20;20.17;;;2.20;99.90;;;;;;4839563;29;20133;-79
2022/12/08 11:08:58;;;;;;;45.90;20.88;;;2.20;99.90;;;;;;4842253;29;20046;-80
2022/12/08 11:11:50;;;;;;;101.35;19.45;;;2.30;99.90;;;;;;4837902;29;20424;-79
2022/12/08 11:14:32;;;;;;;79.25;21.45;;;2.30;99.90;;;;;;4831682;29;20089;-79
2022/12/08 11:17:08;;;;;;;45.30;19.73;;;2.30;99.90;;;;;;4835083;29;20457;-80
2022/12/08 11:19:43;;;;;;;67.50;19.08;;;2.20;99.90;;;;;;4839334;29;20102;-79
2022/12/08 11:22:31;;;;;;;37.78;18.92;;;2.20;99.90;;;;;;4829132;29;20050;-81
2022/12/08 11:25:06;;;;;;;49.03;18.88;;;2.20;99.90;;;;;;4841217;29;20528;-80
2022/12/08 11:27:35;;;;;;;50.72;19.45;;;2.40;99.90;;;;;;4830804;29;20124;-80
2022/12/08 11:30:13;;;;;;;49.80;19.55;;;2.40;99.90;;;;;;4841790;29;20065;-81
2022/12/08 11:32:43;;;;;;;39.42;18.35;;;2.50;99.90;;;;;;4839560;29;20421;-80
2022/12/08 11:35:35;;;;;;;41.30;17.85;;;2.50;99.90;;;;;;4837579;29;20068;-80
2022/12/08 11:38:10;;;;;;;30.60;16.58;;;2.60;99.90;;;;;;4834724;29;20073;-80
2022/12/08 11:40:50;;;;;;;36.08;18.75;;;2.70;99.90;;;;;;4837569;29;20051;-80
2022/12/08 11:43:32;;;;;;;34.42;17.92;;;2.80;99.90;;;;;;4833602;29;20185;-80
2022/12/08 11:46:02;;;;;;;29.33;16.92;;;2.90;99.90;;;;;;4833152;29;20432;-80
2022/12/08 11:48:35;;;;;;;53.47;16.25;;;3.00;99.90;;;;;;4833626;29;20053;-81
2022/12/08 11:51:17;;;;;;;36.25;17.55;;;2.90;99.90;;;;;;4841810;29;20149;-78
2022/12/08 11:54:02;;;;;;;;;;;3.00;99.90;;;;;;4828961;29;20477;-80
2022/12/08 11:56:35;;;;;;;32.75;17.33;;;3.10;99.90;;;;;;4836093;29;19929;-80
2022/12/08 11:59:14;;;;;;;32.33;18.05;;;3.20;99.90;;;;;;4832983;29;20065;-80
2022/12/08 12:01:41;;;;;;;36.75;17.55;;;3.30;99.90;;;;;;4835322;29;20058;-79
2022/12/08 12:04:29;;;;;;;45.88;17.13;;;3.20;99.90;;;;;;4829056;29;20433;-80
2022/12/08 12:06:56;;;;;;;40.08;17.17;;;3.10;99.90;;;;;;4842470;29;20053;-79
2022/12/08 12:09:41;;;;;;;29.23;16.63;;;3.00;99.90;;;;;;4842882;29;20077;-79
2022/12/08 12:12:20;;;;;;;31.13;16.13;;;2.90;99.90;;;;;;4843239;29;20061;-79
2022/12/08 12:15:33;;;;;;;33.40;16.33;;;2.80;99.90;;;;;;4841739;29;20342;-79
2022/12/08 12:18:25;;;;;;;31.20;17.33;;;2.70;99.90;;;;;;4840314;29;20073;-78
2022/12/08 12:20:59;;;;;;;39.55;17.88;;;2.80;99.90;;;;;;4836503;29;20058;-79
2022/12/08 12:23:39;;;;;;;35.75;17.13;;;2.70;99.90;;;;;;4833226;29;20057;-79
2022/12/08 12:26:08;;;;;;;43.83;18.83;;;2.70;99.90;;;;;;4829650;29;20050;-79
2022/12/08 12:28:51;;;;;;;40.10;19.30;;;2.80;99.90;;;;;;4827859;29;20054;-80
2022/12/08 12:31:25;;;;;;;33.67;17.33;;;2.80;99.90;;;;;;4839897;29;20065;-80
2022/12/08 12:33:55;;;;;;;32.03;16.25;;;2.80;99.90;;;;;;4843147;29;20058;-79
2022/12/08 12:36:24;;;;;;;28.48;15.32;;;2.80;99.90;;;;;;4842639;29;20429;-79
2022/12/08 12:39:00;;;;;;;44.95;17.40;;;2.80;99.90;;;;;;4840335;29;20057;-79
2022/12/08 12:41:37;;;;;;;30.70;17.13;;;2.70;99.90;;;;;;4836708;29;20054;-79
2022/12/08 12:44:13;;;;;;;30.25;17.67;;;2.70;99.90;;;;;;4837619;29;20436;-79
2022/12/08 12:46:47;;;;;;;28.20;15.43;;;2.70;99.90;;;;;;4833250;29;20054;-79
2022/12/08 12:49:38;;;;;;;27.75;15.70;;;2.80;99.90;;;;;;4831099;29;20046;-79
2022/12/08 12:52:14;;;;;;;31.50;17.00;;;3.00;99.90;;;;;;4842042;29;20061;-79
2022/12/08 12:54:42;;;;;;;36.78;18.92;;;3.10;99.90;;;;;;4846521;29;20169;-79
2022/12/08 12:57:12;;;;;;;30.13;17.65;;;3.20;99.90;;;;;;4844805;29;20057;-80
2022/12/08 12:59:44;;;;;;;41.60;18.80;;;3.20;99.90;;;;;;4843648;29;20069;-80
2022/12/08 13:02:47;;;;;;;39.53;20.42;;;3.30;99.90;;;;;;4835075;29;20478;-80
2022/12/08 13:05:25;;;;;;;33.50;16.63;;;3.30;99.90;;;;;;4839496;29;20664;-80
2022/12/08 13:08:17;;;;;;;28.92;17.45;;;3.20;99.90;;;;;;4841543;29;20057;-80
2022/12/08 13:11:17;;;;;;;31.23;17.45;;;3.30;99.90;;;;;;4844161;29;20053;-80
2022/12/08 13:14:05;;;;;;;30.42;16.48;;;3.30;99.90;;;;;;4817112;29;20054;-79
2022/12/08 13:16:38;;;;;;;32.35;17.92;;;3.30;99.90;;;;;;4844436;29;20054;-80